Time;durP1;ratioP1;P1;durP2;ratioP2;P2;SDS_P1;SDS_P2;PMS_P1;PMS_P2;Temp;Humidity;BMP_temperature;BMP_pressure;BME280_temperature;BME280_humidity;BME280_pressure;Samples;Min_cycle;Max_cycle;Signal;HPM_P1;HPM_P2
2022/01/05 00:00:31;;;;;;;1.17;0.60;;;;;;;-145.69;100.00;71489.94;5052901;28;20653;-72
2022/01/05 00:02:57;;;;;;;0.50;0.50;;;;;;;-145.69;100.00;71503.88;5052114;28;20202;-72
2022/01/05 00:05:24;;;;;;;0.50;0.50;;;;;;;-145.69;100.00;71491.94;5052545;28;20207;-73
2022/01/05 00:07:52;;;;;;;1.13;0.60;;;;;;;-145.69;100.00;71505.88;5052906;28;20249;-72
2022/01/05 00:10:18;;;;;;;0.43;0.37;;;;;;;-145.69;100.00;71493.94;5052728;28;20654;-72
2022/01/05 00:12:45;;;;;;;0.80;0.50;;;;;;;-145.69;100.00;71505.88;5051786;28;20435;-72
2022/01/05 00:15:11;;;;;;;0.40;0.40;;;;;;;-145.69;100.00;71491.94;5052505;28;20203;-72
2022/01/05 00:17:38;;;;;;;1.70;1.17;;;;;;;-145.69;100.00;71497.91;5052919;28;20222;-72
2022/01/05 00:20:05;;;;;;;0.40;0.40;;;;;;;-145.69;100.00;71493.94;5052896;28;20290;-73
2022/01/05 00:22:32;;;;;;;1.77;0.70;;;;;;;-145.69;100.00;71478.00;5052696;28;20206;-72
2022/01/05 00:25:00;;;;;;;1.48;0.50;;;;;;;-145.69;100.00;71474.03;5051403;28;20791;-72
2022/01/05 00:27:26;;;;;;;1.13;0.63;;;;;;;-145.69;100.00;71472.03;5052508;28;20199;-73
2022/01/05 00:29:53;;;;;;;0.33;0.33;;;;;;;-145.69;100.00;71460.09;5052608;28;20203;-73
2022/01/05 00:32:19;;;;;;;0.50;0.50;;;;;;;-145.69;100.00;71454.13;5052715;28;20200;-73
2022/01/05 00:34:46;;;;;;;0.40;0.40;;;;;;;-145.69;100.00;71454.13;5052655;28;20206;-72
2022/01/05 00:37:12;;;;;;;0.63;0.60;;;;;;;-145.69;100.00;71446.16;5052562;28;20227;-73
2022/01/05 00:39:39;;;;;;;0.50;0.47;;;;;;;-145.69;100.00;71432.25;5052561;28;20207;-73
2022/01/05 00:42:08;;;;;;;0.70;0.40;;;;;;;-145.69;100.00;71418.31;5052427;28;20667;-72
2022/01/05 00:44:34;;;;;;;1.13;0.60;;;;;;;-145.69;100.00;71424.28;5052679;28;20203;-73
2022/01/05 00:47:01;;;;;;;2.43;0.60;;;;;;;-145.69;100.00;71420.31;5052344;28;20202;-73
2022/01/05 00:49:27;;;;;;;0.47;0.47;;;;;;;-145.69;100.00;71420.31;5052549;28;20211;-72
2022/01/05 00:51:54;;;;;;;0.70;0.70;;;;;;;-145.69;100.00;71418.31;5051938;28;20231;-73
2022/01/05 00:54:21;;;;;;;0.70;0.70;;;;;;;-145.69;100.00;71422.28;5052439;28;20203;-73
2022/01/05 00:56:47;;;;;;;1.33;0.47;;;;;;;-145.69;100.00;71422.28;5048535;28;20254;-73
2022/01/05 00:59:15;;;;;;;2.53;0.60;;;;;;;-145.69;100.00;71422.28;5032402;28;20204;-72
2022/01/05 01:01:41;;;;;;;2.07;0.60;;;;;;;-145.69;100.00;71418.31;5044023;28;20192;-72
2022/01/05 01:04:09;;;;;;;0.80;0.50;;;;;;;-145.69;100.00;71406.38;5052435;28;20261;-73
2022/01/05 01:06:35;;;;;;;1.40;0.50;;;;;;;-145.69;100.00;71382.50;5052343;28;20249;-73
2022/01/05 01:09:02;;;;;;;0.40;0.40;;;;;;;-145.69;100.00;71390.47;5052169;28;20208;-72
2022/01/05 01:11:28;;;;;;;0.40;0.40;;;;;;;-145.69;100.00;71402.41;5052503;28;20207;-72
2022/01/05 01:13:55;;;;;;;0.57;0.50;;;;;;;-145.69;100.00;71418.31;5052370;28;20544;-73
2022/01/05 01:16:23;;;;;;;1.77;0.70;;;;;;;-145.69;100.00;71420.31;5055928;28;20227;-72
2022/01/05 01:18:50;;;;;;;0.40;0.40;;;;;;;-145.69;100.00;71416.31;5056033;28;20202;-72
2022/01/05 01:21:16;;;;;;;0.50;0.50;;;;;;;-145.69;100.00;71426.28;5055930;28;20210;-73
2022/01/05 01:23:53;;;;;;;0.47;0.47;;;;;;;-145.69;100.00;71422.28;5055650;28;20253;-72
2022/01/05 01:26:20;;;;;;;1.80;0.40;;;;;;;-145.69;100.00;71424.28;5056083;28;20202;-72
2022/01/05 01:28:47;;;;;;;0.40;0.40;;;;;;;-145.69;100.00;71434.22;5055660;28;20207;-72
2022/01/05 01:31:13;;;;;;;0.50;0.50;;;;;;;-145.69;100.00;71426.28;5055891;28;20203;-72
2022/01/05 01:33:41;;;;;;;0.40;0.40;;;;;;;-145.69;100.00;71418.31;5055682;28;20680;-73
2022/01/05 01:36:08;;;;;;;0.50;0.50;;;;;;;-145.69;100.00;71418.31;5055477;28;20304;-73
2022/01/05 01:38:34;;;;;;;1.93;0.40;;;;;;;-145.69;100.00;71420.31;5055817;28;20203;-73
2022/01/05 01:41:01;;;;;;;0.60;0.50;;;;;;;-145.69;100.00;71418.31;5055873;28;20565;-72
2022/01/05 01:43:27;;;;;;;0.83;0.50;;;;;;;-145.69;100.00;71416.31;5055484;28;20204;-73
2022/01/05 01:45:54;;;;;;;2.77;0.60;;;;;;;-145.69;100.00;71420.31;5055536;28;20207;-72
2022/01/05 01:48:20;;;;;;;1.77;0.50;;;;;;;-145.69;100.00;71422.28;5054676;28;20229;-72
2022/01/05 01:50:48;;;;;;;0.70;0.47;;;;;;;-145.69;100.00;71426.28;5055135;28;20199;-73
2022/01/05 01:53:15;;;;;;;1.80;0.60;;;;;;;-145.69;100.00;71424.28;5055155;28;20273;-72
2022/01/05 01:55:41;;;;;;;0.50;0.50;;;;;;;-145.69;100.00;71422.28;5055332;28;20593;-72
2022/01/05 01:58:08;;;;;;;0.60;0.43;;;;;;;-145.69;100.00;71428.25;5055259;28;20207;-73
2022/01/05 02:00:35;;;;;;;0.50;0.50;;;;;;;-145.69;100.00;71426.28;5054905;28;20558;-72
2022/01/05 02:03:02;;;;;;;0.40;0.40;;;;;;;-145.69;100.00;71428.25;5054951;28;20662;-72
2022/01/05 02:05:28;;;;;;;0.53;0.50;;;;;;;-145.69;100.00;71414.34;5055020;28;20237;-73
2022/01/05 02:07:56;;;;;;;0.70;0.70;;;;;;;-145.69;100.00;71422.28;5054893;28;20685;-73
2022/01/05 02:10:23;;;;;;;0.73;0.63;;;;;;;-145.69;100.00;71416.31;5054890;28;20212;-73
2022/01/05 02:12:50;;;;;;;0.53;0.50;;;;;;;-145.69;100.00;71420.31;5054903;28;20210;-73
2022/01/05 02:15:17;;;;;;;1.30;0.50;;;;;;;-145.69;100.00;71418.31;5054944;28;20202;-73
2022/01/05 02:17:55;;;;;;;0.40;0.40;;;;;;;-145.69;100.00;71426.28;5054609;28;20622;-73
2022/01/05 02:20:23;;;;;;;0.83;0.50;;;;;;;-145.69;100.00;71426.28;5055022;28;20281;-72
2022/01/05 02:22:51;;;;;;;0.50;0.50;;;;;;;-145.69;100.00;71422.28;5054838;28;20281;-73
2022/01/05 02:25:18;;;;;;;0.50;0.50;;;;;;;-145.69;100.00;71430.25;5054795;28;20195;-73
2022/01/05 02:27:47;;;;;;;0.87;0.50;;;;;;;-145.69;100.00;71426.28;5053982;28;20210;-72
2022/01/05 02:30:18;;;;;;;0.57;0.50;;;;;;;-145.69;100.00;71432.25;5054376;28;20195;-73
2022/01/05 02:32:44;;;;;;;0.50;0.50;;;;;;;-145.69;100.00;71436.22;5053639;28;20552;-73
2022/01/05 02:35:11;;;;;;;0.50;0.50;;;;;;;-145.69;100.00;71426.28;5054295;28;20206;-73
2022/01/05 02:37:42;;;;;;;0.47;0.47;;;;;;;-145.69;100.00;71420.31;5054353;28;20223;-73
2022/01/05 02:40:12;;;;;;;0.50;0.50;;;;;;;-145.69;100.00;71446.16;5054549;28;20213;-73
2022/01/05 02:42:39;;;;;;;1.40;0.50;;;;;;;-145.69;100.00;71446.16;5053662;28;20203;-73
2022/01/05 02:45:06;;;;;;;1.80;0.40;;;;;;;-145.69;100.00;71450.16;5054126;28;20203;-73
2022/01/05 02:47:33;;;;;;;0.60;0.60;;;;;;;-145.69;100.00;71450.16;5054226;28;20226;-73
2022/01/05 02:50:00;;;;;;;1.40;0.50;;;;;;;-145.69;100.00;71470.06;5054368;28;20207;-72
2022/01/05 02:52:26;;;;;;;0.50;0.50;;;;;;;-145.69;100.00;71468.06;5053930;28;20234;-72
2022/01/05 02:54:53;;;;;;;0.63;0.50;;;;;;;-145.69;100.00;71474.03;5054131;28;20203;-72
2022/01/05 02:57:21;;;;;;;0.50;0.50;;;;;;;-145.69;100.00;71478.00;5053773;28;20235;-72
2022/01/05 02:59:47;;;;;;;0.50;0.50;;;;;;;-145.69;100.00;71474.03;5051121;28;20203;-72
2022/01/05 03:02:14;;;;;;;0.40;0.40;;;;;;;-145.69;100.00;71482.00;5053909;28;20681;-73
2022/01/05 03:04:40;;;;;;;0.40;0.40;;;;;;;-145.69;100.00;71489.94;5053911;28;20196;-73
2022/01/05 03:07:08;;;;;;;0.43;0.43;;;;;;;-145.69;100.00;71489.94;5053808;28;20215;-72
2022/01/05 03:09:34;;;;;;;0.90;0.50;;;;;;;-145.69;100.00;71487.97;5053783;28;20673;-73
2022/01/05 03:12:01;;;;;;;1.50;0.50;;;;;;;-145.69;100.00;71499.91;5053675;28;20200;-73
2022/01/05 03:14:29;;;;;;;0.50;0.50;;;;;;;-145.69;100.00;71483.97;5053881;28;20196;-73
2022/01/05 03:16:55;;;;;;;0.30;0.30;;;;;;;-145.69;100.00;71485.97;5053677;28;20254;-72
2022/01/05 03:19:21;;;;;;;0.50;0.50;;;;;;;-145.69;100.00;71499.91;5053697;28;20257;-73
2022/01/05 03:21:48;;;;;;;0.40;0.40;;;;;;;-145.69;100.00;71499.91;5053732;28;20208;-73
2022/01/05 03:24:14;;;;;;;1.13;0.50;;;;;;;-145.69;100.00;71517.81;5053277;28;20207;-72
2022/01/05 03:26:41;;;;;;;0.60;0.60;;;;;;;-145.69;100.00;71505.88;5053663;28;20233;-74
2022/01/05 03:29:07;;;;;;;0.40;0.40;;;;;;;-145.69;100.00;71521.78;5053798;28;20286;-73
2022/01/05 03:31:35;;;;;;;0.37;0.37;;;;;;;-145.69;100.00;71537.72;5053609;28;20711;-73
2022/01/05 03:34:04;;;;;;;0.30;0.30;;;;;;;-145.69;100.00;71547.66;5053599;28;20195;-74
2022/01/05 03:36:30;;;;;;;0.40;0.40;;;;;;;-145.69;100.00;71557.59;5053395;28;20230;-74
2022/01/05 03:38:56;;;;;;;0.40;0.40;;;;;;;-145.69;100.00;71561.59;5053144;28;20207;-74
2022/01/05 03:41:23;;;;;;;0.30;0.30;;;;;;;-145.69;100.00;71569.53;5053309;28;20195;-74
2022/01/05 03:43:49;;;;;;;1.20;0.60;;;;;;;-145.69;100.00;71569.53;5053122;28;20566;-74
2022/01/05 03:46:16;;;;;;;0.50;0.50;;;;;;;-145.69;100.00;71583.47;5053123;28;20716;-74
2022/01/05 03:48:44;;;;;;;0.50;0.50;;;;;;;-145.69;100.00;71573.53;5053345;28;20203;-74
2022/01/05 03:51:10;;;;;;;0.57;0.50;;;;;;;-145.69;100.00;71577.50;5053135;28;20203;-74
2022/01/05 03:53:37;;;;;;;2.47;0.53;;;;;;;-145.69;100.00;71575.50;5052839;28;20563;-74
2022/01/05 03:56:03;;;;;;;0.43;0.40;;;;;;;-145.69;100.00;71573.53;5053311;28;20204;-74
2022/01/05 03:58:30;;;;;;;0.50;0.50;;;;;;;-145.69;100.00;71575.50;5053052;28;20234;-74
2022/01/05 04:00:56;;;;;;;0.50;0.50;;;;;;;-145.69;100.00;71575.50;5052979;28;20195;-74
2022/01/05 04:03:23;;;;;;;0.50;0.50;;;;;;;-145.69;100.00;71583.47;5052751;28;20199;-74
2022/01/05 04:05:51;;;;;;;0.40;0.40;;;;;;;-145.69;100.00;71583.47;5052921;28;20261;-74
2022/01/05 04:08:17;;;;;;;3.40;0.50;;;;;;;-145.69;100.00;71567.56;5052729;28;20238;-74
2022/01/05 04:10:44;;;;;;;0.50;0.50;;;;;;;-145.69;100.00;71577.50;5052799;28;20203;-74
2022/01/05 04:13:10;;;;;;;1.33;0.60;;;;;;;-145.69;100.00;71573.53;5052990;28;20207;-74
2022/01/05 04:15:37;;;;;;;0.60;0.60;;;;;;;-145.69;100.00;71567.56;5052871;28;20253;-74
2022/01/05 04:18:03;;;;;;;0.53;0.53;;;;;;;-145.69;100.00;71567.56;5052877;28;20281;-74
2022/01/05 04:20:30;;;;;;;0.60;0.57;;;;;;;-145.69;100.00;71573.53;5052817;28;20210;-74
2022/01/05 04:22:58;;;;;;;1.57;0.67;;;;;;;-145.69;100.00;71577.50;5052634;28;20207;-74
2022/01/05 04:25:24;;;;;;;1.00;0.87;;;;;;;-145.69;100.00;71567.56;5052565;28;20826;-74
2022/01/05 04:27:50;;;;;;;0.50;0.50;;;;;;;-145.69;100.00;71569.53;5052285;28;20682;-74
2022/01/05 04:30:17;;;;;;;0.57;0.57;;;;;;;-145.69;100.00;71565.56;5052604;28;20207;-74
2022/01/05 04:32:44;;;;;;;0.40;0.40;;;;;;;-145.69;100.00;71559.59;5052648;28;20215;-74
2022/01/05 04:35:13;;;;;;;0.40;0.40;;;;;;;-145.69;100.00;71561.59;5052695;28;20211;-74
2022/01/05 04:37:40;;;;;;;0.53;0.53;;;;;;;-145.69;100.00;71565.56;5052330;28;20230;-74
2022/01/05 04:40:09;;;;;;;0.30;0.30;;;;;;;-145.69;100.00;71565.56;5052695;28;20203;-74
2022/01/05 04:42:36;;;;;;;0.50;0.50;;;;;;;-145.69;100.00;71561.59;5052529;28;20203;-74
2022/01/05 04:45:03;;;;;;;0.30;0.30;;;;;;;-145.69;100.00;71543.69;5052102;28;20728;-74
2022/01/05 04:47:29;;;;;;;0.50;0.50;;;;;;;-145.69;100.00;71545.66;5052486;28;20204;-74
2022/01/05 04:49:56;;;;;;;0.40;0.40;;;;;;;-145.69;100.00;71553.63;5054036;28;20206;-74
2022/01/05 04:52:22;;;;;;;0.40;0.40;;;;;;;-145.69;100.00;71553.63;5056258;28;20235;-74
2022/01/05 04:54:49;;;;;;;0.40;0.40;;;;;;;-145.69;100.00;71563.56;5056520;28;20206;-74
2022/01/05 04:57:18;;;;;;;0.30;0.30;;;;;;;-145.69;100.00;71565.56;5044570;28;20238;-74
2022/01/05 04:59:44;;;;;;;0.40;0.40;;;;;;;-145.69;100.00;71569.53;5036430;28;20227;-74
2022/01/05 05:02:12;;;;;;;0.30;0.30;;;;;;;-145.69;100.00;71569.53;5051671;28;20196;-74
2022/01/05 05:04:38;;;;;;;0.50;0.50;;;;;;;-145.69;100.00;71565.56;5056240;28;20281;-74
2022/01/05 05:07:06;;;;;;;0.60;0.60;;;;;;;-145.69;100.00;71569.53;5056086;28;20693;-74
2022/01/05 05:09:32;;;;;;;1.90;0.50;;;;;;;-145.69;100.00;71561.59;5056240;28;20206;-73
2022/01/05 05:11:59;;;;;;;0.40;0.40;;;;;;;-145.69;100.00;71563.56;5056216;28;20203;-74
2022/01/05 05:14:27;;;;;;;0.43;0.43;;;;;;;-145.69;100.00;71551.63;5055993;28;20210;-74
2022/01/05 05:16:53;;;;;;;0.93;0.60;;;;;;;-145.69;100.00;71567.56;5055943;28;20203;-74
2022/01/05 05:19:20;;;;;;;1.53;0.50;;;;;;;-145.69;100.00;71571.53;5056161;28;20203;-74
2022/01/05 05:21:46;;;;;;;0.40;0.40;;;;;;;-145.69;100.00;71577.50;5056070;28;20200;-74
2022/01/05 05:24:15;;;;;;;0.60;0.60;;;;;;;-145.69;100.00;71579.50;5055917;28;20200;-74
2022/01/05 05:26:41;;;;;;;0.53;0.53;;;;;;;-145.69;100.00;71581.50;5055867;28;20745;-74
2022/01/05 05:29:08;;;;;;;0.80;0.70;;;;;;;-145.69;100.00;71597.41;5055733;28;20211;-74
2022/01/05 05:31:35;;;;;;;0.73;0.50;;;;;;;-145.69;100.00;71589.44;5055441;28;20261;-74
2022/01/05 05:34:02;;;;;;;0.30;0.30;;;;;;;-145.69;100.00;71589.44;5055920;28;20208;-73
2022/01/05 05:36:29;;;;;;;0.43;0.40;;;;;;;-145.69;100.00;71579.50;5055763;28;20203;-74
2022/01/05 05:38:55;;;;;;;0.43;0.43;;;;;;;-145.69;100.00;71585.47;5055385;28;20231;-74
2022/01/05 05:41:21;;;;;;;1.43;0.70;;;;;;;-145.69;100.00;71589.44;5055699;28;20535;-74
2022/01/05 05:43:49;;;;;;;0.53;0.50;;;;;;;-145.69;100.00;71587.47;5055359;28;20736;-74
2022/01/05 05:46:15;;;;;;;1.10;0.40;;;;;;;-145.69;100.00;71601.38;5055531;28;20681;-74
2022/01/05 05:48:43;;;;;;;0.40;0.40;;;;;;;-145.69;100.00;71605.38;5054911;28;20451;-74
2022/01/05 05:51:10;;;;;;;0.70;0.60;;;;;;;-145.69;100.00;71637.19;5055366;28;20226;-74
2022/01/05 05:53:36;;;;;;;0.50;0.50;;;;;;;-145.69;100.00;71655.13;5055363;28;20203;-74
2022/01/05 05:56:03;;;;;;;3.33;0.73;;;;;;;-145.69;100.00;71667.06;5055377;28;20199;-74
2022/01/05 05:58:30;;;;;;;0.90;0.70;;;;;;;-145.69;100.00;71684.97;5054696;28;20491;-74
2022/01/05 06:00:56;;;;;;;1.80;0.77;;;;;;;-145.69;100.00;71706.84;5053917;28;20187;-74
2022/01/05 06:03:22;;;;;;;0.80;0.80;;;;;;;-145.69;100.00;71728.75;5055041;28;20206;-74
2022/01/05 06:05:50;;;;;;;0.63;0.63;;;;;;;-145.69;100.00;71804.38;5055061;28;20650;-73
2022/01/05 06:08:17;;;;;;;1.27;0.50;;;;;;;-145.69;100.00;71836.22;5055089;28;20203;-73
2022/01/05 06:10:43;;;;;;;1.00;0.80;;;;;;;-145.69;100.00;71852.13;5055057;28;20200;-73
2022/01/05 06:13:09;;;;;;;0.70;0.70;;;;;;;-145.69;100.00;71868.06;5054772;28;20662;-74
2022/01/05 06:15:36;;;;;;;1.53;1.10;;;;;;;-145.69;100.00;71881.97;5055125;28;20210;-74
2022/01/05 06:18:02;;;;;;;1.20;1.10;;;;;;;-145.69;100.00;71885.97;5054882;28;20231;-74
2022/01/05 06:20:29;;;;;;;0.90;0.90;;;;;;;-145.69;100.00;71880.00;5054931;28;20200;-74
2022/01/05 06:22:57;;;;;;;1.47;1.17;;;;;;;-145.69;100.00;71889.94;5054595;28;20202;-74
2022/01/05 06:25:23;;;;;;;1.63;1.50;;;;;;;-145.69;100.00;71891.94;5054730;28;20203;-74
2022/01/05 06:27:50;;;;;;;5.47;1.43;;;;;;;-145.69;100.00;71899.88;5054618;28;20199;-74
2022/01/05 06:30:16;;;;;;;2.57;1.70;;;;;;;-145.69;100.00;71903.88;5054821;28;20200;-74
2022/01/05 06:32:44;;;;;;;4.47;1.87;;;;;;;-145.69;100.00;71899.88;5054581;28;20222;-74
2022/01/05 06:35:12;;;;;;;2.27;1.57;;;;;;;-145.69;100.00;71903.88;5054281;28;20203;-74
2022/01/05 06:37:39;;;;;;;2.57;2.03;;;;;;;-145.69;100.00;71911.84;5054247;28;20227;-74
2022/01/05 06:40:09;;;;;;;2.07;1.80;;;;;;;-145.69;100.00;71913.81;5054403;28;20662;-74
2022/01/05 06:42:35;;;;;;;2.10;1.70;;;;;;;-145.69;100.00;71923.78;5054356;28;20210;-74
2022/01/05 06:45:02;;;;;;;2.03;1.47;;;;;;;-145.69;100.00;71929.75;5054449;28;20203;-74
2022/01/05 06:47:28;;;;;;;3.07;1.70;;;;;;;-145.69;100.00;71939.69;5054105;28;20203;-73
2022/01/05 06:49:54;;;;;;;2.53;1.70;;;;;;;-145.69;100.00;71951.63;5054235;28;20597;-74
2022/01/05 06:52:21;;;;;;;1.83;1.47;;;;;;;-145.69;100.00;71957.59;5047108;28;20232;-73
2022/01/05 06:54:47;;;;;;;2.37;1.63;;;;;;;-145.69;100.00;71971.53;5034189;28;20203;-74
2022/01/05 06:57:15;;;;;;;1.73;1.60;;;;;;;-145.69;100.00;71979.50;5033630;28;20199;-74
2022/01/05 06:59:42;;;;;;;2.33;1.70;;;;;;;-145.69;100.00;71979.50;5034044;28;20211;-74
2022/01/05 07:02:09;;;;;;;3.87;1.60;;;;;;;-145.69;100.00;71993.44;5049350;28;20203;-74
2022/01/05 07:04:35;;;;;;;2.10;1.90;;;;;;;-145.69;100.00;71999.41;5053891;28;20618;-74
2022/01/05 07:07:02;;;;;;;1.90;1.70;;;;;;;-145.69;100.00;71995.41;5053992;28;20211;-74
2022/01/05 07:09:28;;;;;;;2.87;2.00;;;;;;;-145.69;100.00;72003.38;5053577;28;20658;-74
2022/01/05 07:11:55;;;;;;;4.20;1.80;;;;;;;-145.69;100.00;72015.31;5053838;28;20203;-74
2022/01/05 07:14:23;;;;;;;2.40;1.53;;;;;;;-145.69;100.00;72021.28;5053651;28;20211;-74
2022/01/05 07:16:50;;;;;;;2.80;2.07;;;;;;;-145.69;100.00;72029.25;5053814;28;20210;-74
2022/01/05 07:19:16;;;;;;;3.67;1.90;;;;;;;-145.69;100.00;72033.22;5053636;28;20254;-74
2022/01/05 07:21:43;;;;;;;1.87;1.63;;;;;;;-145.69;100.00;72041.19;5053769;28;20200;-74
2022/01/05 07:24:12;;;;;;;2.23;1.63;;;;;;;-145.69;100.00;72031.25;5053250;28;20202;-74
2022/01/05 07:26:38;;;;;;;3.20;1.97;;;;;;;-145.69;100.00;72041.19;5053801;28;20204;-74
2022/01/05 07:29:05;;;;;;;2.20;1.97;;;;;;;-145.69;100.00;72047.16;5053356;28;20619;-74
2022/01/05 07:31:33;;;;;;;3.37;2.07;;;;;;;-145.69;100.00;72055.13;5053507;28;20203;-74
2022/01/05 07:33:59;;;;;;;3.00;2.23;;;;;;;-145.69;100.00;72035.22;5053187;28;20210;-74
2022/01/05 07:36:26;;;;;;;3.70;2.67;;;;;;;-145.69;100.00;72035.22;5053423;28;20677;-74
2022/01/05 07:38:52;;;;;;;3.27;2.60;;;;;;;-145.69;100.00;72055.13;5053191;28;20266;-74
2022/01/05 07:41:19;;;;;;;3.57;2.30;;;;;;;-145.69;100.00;72051.16;5053032;28;20199;-74
2022/01/05 07:43:45;;;;;;;3.47;2.23;;;;;;;-145.69;100.00;72059.09;5053148;28;20249;-74
2022/01/05 07:46:12;;;;;;;3.13;2.43;;;;;;;-145.69;100.00;72069.06;5053067;28;20289;-74
2022/01/05 07:48:40;;;;;;;2.57;2.10;;;;;;;-145.69;100.00;72082.97;5053134;28;20540;-74
2022/01/05 07:51:06;;;;;;;2.23;1.93;;;;;;;-145.69;100.00;72081.00;5052585;28;20199;-74
2022/01/05 07:53:33;;;;;;;2.27;1.60;;;;;;;-145.69;100.00;72094.94;5053367;28;20207;-74
2022/01/05 07:55:59;;;;;;;3.93;1.90;;;;;;;-145.69;100.00;72094.94;5052934;28;20203;-74
2022/01/05 07:58:27;;;;;;;2.80;1.83;;;;;;;-145.69;100.00;72108.84;5052925;28;20231;-75
2022/01/05 08:00:53;;;;;;;3.63;2.30;;;;;;;-145.69;100.00;72114.81;5052613;28;20241;-74
2022/01/05 08:03:20;;;;;;;2.83;1.77;;;;;;;-145.69;100.00;72122.78;5052777;28;20671;-74
2022/01/05 08:05:50;;;;;;;2.10;1.60;;;;;;;-145.69;100.00;72142.69;5052804;28;20203;-74
2022/01/05 08:08:16;;;;;;;1.93;1.57;;;;;;;-145.69;100.00;72148.66;5052614;28;20303;-74
2022/01/05 08:10:43;;;;;;;2.67;1.87;;;;;;;-145.69;100.00;72156.63;5052890;28;20203;-74
2022/01/05 08:13:09;;;;;;;2.43;1.67;;;;;;;-145.69;100.00;72154.63;5052570;28;20204;-74
2022/01/05 08:15:36;;;;;;;3.67;2.10;;;;;;;-145.69;100.00;72158.63;5052840;28;20203;-74
2022/01/05 08:18:02;;;;;;;2.97;1.70;;;;;;;-145.69;100.00;72158.63;5052738;28;20227;-74
2022/01/05 08:20:31;;;;;;;3.07;1.90;;;;;;;-145.69;100.00;72148.66;5052393;28;20199;-74
2022/01/05 08:22:59;;;;;;;4.57;1.70;;;;;;;-145.69;100.00;72158.63;5052549;28;20210;-74
2022/01/05 08:25:26;;;;;;;3.03;1.90;;;;;;;-145.69;100.00;72174.53;5052122;28;20199;-74
2022/01/05 08:27:53;;;;;;;3.60;1.70;;;;;;;-145.69;100.00;72190.47;5052451;28;20199;-74
2022/01/05 08:30:21;;;;;;;5.43;1.90;;;;;;;-145.69;100.00;72216.34;5052673;28;20658;-74
2022/01/05 08:32:48;;;;;;;2.63;1.57;;;;;;;-145.69;100.00;72222.31;5052534;28;20200;-74
2022/01/05 08:35:15;;;;;;;5.03;2.00;;;;;;;-145.69;100.00;72230.25;5052504;28;20203;-74
2022/01/05 08:37:44;;;;;;;6.93;1.73;;;;;;;-145.69;100.00;72226.28;5052657;28;20207;-74
2022/01/05 08:40:13;;;;;;;8.47;1.80;;;;;;;-145.69;100.00;72234.25;5052687;28;20234;-74
2022/01/05 08:42:40;;;;;;;1.43;1.33;;;;;;;-145.69;100.00;72226.28;5052491;28;20195;-74
2022/01/05 08:45:08;;;;;;;3.50;1.70;;;;;;;-145.69;100.00;72240.22;5052288;28;20199;-74
2022/01/05 08:47:34;;;;;;;4.97;1.87;;;;;;;-145.69;100.00;72252.16;5052270;28;20231;-74
2022/01/05 08:50:01;;;;;;;3.90;1.63;;;;;;;-145.69;100.00;72264.09;5052591;28;20204;-74
2022/01/05 08:52:27;;;;;;;5.47;1.63;;;;;;;-145.69;100.00;72270.06;5052243;28;20231;-74
2022/01/05 08:54:54;;;;;;;3.93;1.40;;;;;;;-145.69;100.00;72282.00;5048597;28;20211;-74
2022/01/05 08:57:22;;;;;;;3.20;1.30;;;;;;;-145.69;100.00;72286.00;5032545;28;20651;-75
2022/01/05 08:59:51;;;;;;;5.90;1.33;;;;;;;-145.69;100.00;72297.94;5031890;28;20228;-74
2022/01/05 09:02:18;;;;;;;6.87;1.57;;;;;;;-145.69;100.00;72289.97;5048796;28;20199;-74
2022/01/05 09:04:46;;;;;;;2.77;1.47;;;;;;;-145.69;100.00;72295.94;5052546;28;20195;-74
2022/01/05 09:07:12;;;;;;;4.53;1.57;;;;;;;-145.69;100.00;72276.03;5052496;28;20257;-74
2022/01/05 09:09:39;;;;;;;3.00;1.43;;;;;;;-145.69;100.00;72274.06;5052008;28;20203;-74
2022/01/05 09:12:06;;;;;;;3.43;1.47;;;;;;;-145.69;100.00;72272.06;5052419;28;20558;-74
2022/01/05 09:14:34;;;;;;;3.17;1.63;;;;;;;-145.69;100.00;72287.97;5051635;28;20693;-74
2022/01/05 09:17:04;;;;;;;5.43;1.77;;;;;;;-145.69;100.00;72297.94;5037144;28;20201;-74
2022/01/05 09:19:30;;;;;;;3.60;1.53;;;;;;;-145.69;100.00;72289.97;5032320;28;20582;-74
2022/01/05 09:21:57;;;;;;;4.10;1.77;;;;;;;-145.69;100.00;72291.97;5032256;28;20212;-74
2022/01/05 09:24:25;;;;;;;3.97;1.83;;;;;;;-145.69;100.00;72286.00;5032204;28;20200;-74
2022/01/05 09:26:51;;;;;;;10.37;1.80;;;;;;;-145.69;100.00;72289.97;5031952;28;20299;-74
2022/01/05 09:29:18;;;;;;;3.37;1.70;;;;;;;-145.69;100.00;72313.84;5032031;28;20203;-74
2022/01/05 09:31:46;;;;;;;6.73;1.60;;;;;;;-145.69;100.00;72319.81;5031975;28;20836;-74
2022/01/05 09:34:12;;;;;;;5.47;1.70;;;;;;;-145.69;100.00;72321.81;5032184;28;20201;-74
2022/01/05 09:36:43;;;;;;;4.33;1.57;;;;;;;-145.69;100.00;72333.75;5034646;28;20208;-73
2022/01/05 09:41:57;;;;;;;7.67;1.73;;;;;;;-145.69;100.00;72333.75;5035680;28;20199;-74
2022/01/05 09:44:27;;;;;;;6.47;1.90;;;;;;;-145.69;100.00;72329.78;5035643;28;20243;-74
2022/01/05 09:47:09;;;;;;;10.10;1.67;;;;;;;-145.69;100.00;72313.84;5035621;28;20208;-74
2022/01/05 09:49:37;;;;;;;3.40;1.50;;;;;;;-145.69;100.00;72309.88;5035482;28;20204;-74
2022/01/05 09:52:06;;;;;;;6.20;1.57;;;;;;;-145.69;100.00;72311.88;5035174;28;20715;-74
2022/01/05 09:54:34;;;;;;;6.00;1.60;;;;;;;-145.69;100.00;72333.75;5035156;28;20208;-74
2022/01/05 09:57:00;;;;;;;7.90;1.70;;;;;;;-145.69;100.00;72353.66;5035417;28;20613;-75
2022/01/05 09:59:28;;;;;;;8.40;2.00;;;;;;;-145.69;100.00;72357.66;5035206;28;20228;-75
2022/01/05 10:01:56;;;;;;;4.83;1.77;;;;;;;-145.69;100.00;72357.66;5048656;28;20192;-75
2022/01/05 10:04:23;;;;;;;7.40;1.80;;;;;;;-145.69;100.00;72377.53;5055050;28;20211;-75
2022/01/05 10:06:49;;;;;;;2.03;1.40;;;;;;;-145.69;96.22;72401.44;5055006;28;20599;-75
2022/01/05 10:09:16;;;;;;;4.07;1.80;;;;;;;-145.69;100.00;72409.38;5054835;28;20207;-74
2022/01/05 10:11:43;;;;;;;6.80;1.43;;;;;;;-145.69;97.19;72409.38;5055183;28;20207;-75
2022/01/05 10:14:12;;;;;;;4.07;1.20;;;;;;;-145.69;94.10;72413.38;5055105;28;20207;-75
2022/01/05 10:16:39;;;;;;;4.73;1.27;;;;;;;-145.69;94.27;72417.34;5054788;28;20199;-74
2022/01/05 10:19:08;;;;;;;6.93;1.47;;;;;;;-145.69;92.34;72423.31;5054833;28;20582;-74
2022/01/05 10:21:36;;;;;;;6.77;1.47;;;;;;;-145.69;93.65;72409.38;5054967;28;20211;-74
2022/01/05 10:24:03;;;;;;;7.00;1.53;;;;;;;-145.69;97.54;72401.44;5054944;28;20253;-75
2022/01/05 10:26:31;;;;;;;3.93;1.30;;;;;;;-145.69;96.38;72381.53;5054577;28;20204;-74
2022/01/05 10:29:00;;;;;;;3.73;1.67;;;;;;;-145.69;97.87;72395.47;5054616;28;20235;-74
2022/01/05 10:31:29;;;;;;;7.77;1.57;;;;;;;-145.69;97.28;72401.44;5054652;28;20206;-74
2022/01/05 10:33:56;;;;;;;4.37;1.60;;;;;;;-145.69;99.84;72403.41;5054315;28;20195;-74
2022/01/05 10:36:24;;;;;;;4.20;1.97;;;;;;;-145.69;100.00;72411.38;5054520;28;20694;-74
2022/01/05 10:38:58;;;;;;;5.00;1.33;;;;;;;-145.69;100.00;72385.50;5054410;28;20277;-74
2022/01/05 10:41:28;;;;;;;3.00;1.43;;;;;;;-145.69;97.92;72393.47;5054606;28;20207;-75
2022/01/05 10:44:22;;;;;;;6.17;1.77;;;;;;;-145.69;98.86;72373.56;5054128;28;20199;-74
2022/01/05 10:46:53;;;;;;;5.70;1.63;;;;;;;-145.69;99.60;72377.53;5029350;28;20200;-74
2022/01/05 10:49:24;;;;;;;3.50;1.70;;;;;;;-145.69;98.23;72385.50;5054403;28;20211;-74
2022/01/05 10:51:52;;;;;;;8.10;1.67;;;;;;;-145.69;99.93;72401.44;5054460;28;20207;-74
2022/01/05 10:54:21;;;;;;;8.00;2.03;;;;;;;-145.69;98.19;72361.63;5048372;28;20195;-74
2022/01/05 10:56:48;;;;;;;7.13;1.50;;;;;;;-145.69;94.25;72373.56;5053637;28;20202;-75
2022/01/05 10:59:23;;;;;;;6.40;1.80;;;;;;;-145.69;95.83;72393.47;5054064;28;20223;-75
2022/01/05 11:01:51;;;;;;;10.30;1.67;;;;;;;-145.69;92.37;72409.38;5054161;28;20584;-74
2022/01/05 11:04:19;;;;;;;9.20;1.63;;;;;;;-145.69;93.92;72435.28;5053799;28;20670;-75
2022/01/05 11:07:03;;;;;;;3.67;1.57;;;;;;;-145.69;91.13;72465.13;5053997;28;20210;-75
2022/01/05 11:09:30;;;;;;;8.40;1.90;;;;;;;-145.69;90.66;72475.06;5053536;28;20203;-74
2022/01/05 11:11:58;;;;;;;7.73;2.40;;;;;;;-145.69;88.17;72481.03;5053755;28;20242;-74